Time;durP1;ratioP1;P1;durP2;ratioP2;P2;SDS_P1;SDS_P2;PMS_P1;PMS_P2;Temp;Humidity;BMP_temperature;BMP_pressure;BME280_temperature;BME280_humidity;BME280_pressure;Samples;Min_cycle;Max_cycle;Signal;HPM_P1;HPM_P2
2022/01/20 00:00:55;;;;;;;6.00;1.90;;;5.10;99.90;;;;;;5038887;28;20453;-68
2022/01/20 00:03:24;;;;;;;4.00;2.40;;;5.10;99.90;;;;;;5031559;28;20453;-66
2022/01/20 00:08:49;;;;;;;7.03;2.07;;;5.00;99.90;;;;;;5032750;28;20878;-67
2022/01/20 00:27:52;;;;;;;3.20;2.20;;;4.90;99.90;;;;;;5034723;28;20840;-67
2022/01/20 00:30:40;;;;;;;5.30;2.60;;;5.00;99.90;;;;;;5039289;28;20492;-67
2022/01/20 00:33:19;;;;;;;6.17;2.20;;;5.00;99.90;;;;;;5030213;28;21468;-67
2022/01/20 00:38:30;;;;;;;6.57;2.07;;;5.00;99.90;;;;;;5036585;28;20490;-67
2022/01/20 00:40:58;;;;;;;5.93;2.90;;;5.10;99.90;;;;;;5035311;28;20935;-67
2022/01/20 00:43:25;;;;;;;4.63;2.00;;;5.10;99.90;;;;;;5033627;28;20566;-67
2022/01/20 00:45:52;;;;;;;1.67;1.10;;;5.10;99.90;;;;;;5032684;28;20471;-67
2022/01/20 00:48:20;;;;;;;8.00;1.87;;;5.10;99.90;;;;;;5021854;28;20564;-66
2022/01/20 00:50:48;;;;;;;7.07;2.20;;;5.10;99.90;;;;;;5024714;28;20459;-67
2022/01/20 00:53:15;;;;;;;7.50;2.37;;;5.10;99.90;;;;;;5035393;28;20525;-67
2022/01/20 00:55:42;;;;;;;5.47;4.23;;;5.20;99.90;;;;;;5035167;28;20557;-67
2022/01/20 00:58:11;;;;;;;18.47;3.20;;;5.30;99.90;;;;;;5028548;28;20525;-67
2022/01/20 01:00:38;;;;;;;2.80;2.10;;;5.30;99.90;;;;;;5027775;28;20508;-67
2022/01/20 01:03:05;;;;;;;2.70;1.63;;;5.30;99.90;;;;;;5032375;28;20527;-67
2022/01/20 01:05:35;;;;;;;14.23;2.47;;;5.30;99.90;;;;;;5025725;28;20938;-67
2022/01/20 01:08:02;;;;;;;11.33;3.67;;;5.30;99.90;;;;;;5026513;28;20456;-67
2022/01/20 01:10:33;;;;;;;6.43;2.10;;;5.30;99.90;;;;;;5035379;28;21741;-67
2022/01/20 01:13:04;;;;;;;8.50;2.47;;;5.30;99.90;;;;;;5024340;28;20438;-67
2022/01/20 01:15:37;;;;;;;5.07;3.90;;;5.30;99.90;;;;;;5031992;28;20486;-66
2022/01/20 01:21:12;;;;;;;4.30;2.03;;;5.30;99.90;;;;;;5027353;28;20482;-67
2022/01/20 01:23:42;;;;;;;7.10;2.87;;;5.30;99.90;;;;;;5023821;28;20451;-66
2022/01/20 01:26:12;;;;;;;4.83;1.43;;;5.30;99.90;;;;;;5027892;28;20826;-67
2022/01/20 01:28:40;;;;;;;3.20;1.70;;;5.20;99.90;;;;;;5029337;28;20937;-67
2022/01/20 01:33:55;;;;;;;5.97;2.23;;;5.20;99.90;;;;;;5022941;28;20449;-66
2022/01/20 01:36:24;;;;;;;2.50;2.30;;;5.20;99.90;;;;;;5034386;28;20430;-67
2022/01/20 01:38:52;;;;;;;5.60;1.97;;;5.20;99.90;;;;;;5036099;28;20493;-67
2022/01/20 01:41:29;;;;;;;8.87;1.57;;;5.20;99.90;;;;;;5032916;28;20543;-66
2022/01/20 01:44:00;;;;;;;4.77;2.10;;;5.30;99.90;;;;;;5035404;28;20510;-67
2022/01/20 01:46:29;;;;;;;9.90;2.80;;;5.30;99.90;;;;;;5019157;28;21866;-66
2022/01/20 01:48:56;;;;;;;4.90;2.43;;;5.30;99.90;;;;;;5021700;28;20935;-66
2022/01/20 01:51:24;;;;;;;6.60;1.60;;;5.30;99.90;;;;;;5034655;28;20465;-66
2022/01/20 01:53:51;;;;;;;5.63;1.83;;;5.40;99.90;;;;;;5034444;28;20462;-66
2022/01/20 01:56:19;;;;;;;8.83;2.13;;;5.40;99.90;;;;;;5034966;28;20520;-67
2022/01/20 01:58:46;;;;;;;2.60;2.40;;;5.50;99.90;;;;;;5034309;28;20561;-66
2022/01/20 02:01:13;;;;;;;1.17;1.07;;;5.40;99.90;;;;;;5031605;28;20496;-66
2022/01/20 02:03:46;;;;;;;2.23;1.63;;;5.20;99.90;;;;;;5030770;28;20978;-66
2022/01/20 02:06:34;;;;;;;20.17;2.20;;;5.10;99.90;;;;;;5036616;28;20513;-67
2022/01/20 02:09:18;;;;;;;6.93;2.00;;;5.10;99.90;;;;;;5030714;28;20591;-67
2022/01/20 02:20:14;;;;;;;7.37;1.57;;;4.90;99.90;;;;;;5041456;28;20452;-66
2022/01/20 02:22:41;;;;;;;3.80;2.37;;;5.10;99.90;;;;;;5036596;28;20422;-66
2022/01/20 02:25:19;;;;;;;3.27;1.67;;;5.10;99.90;;;;;;5032680;28;20934;-66
2022/01/20 02:27:46;;;;;;;1.57;1.20;;;5.20;99.90;;;;;;5035668;28;20424;-66
2022/01/20 02:30:15;;;;;;;10.83;2.37;;;5.20;99.90;;;;;;5029382;28;20431;-66
2022/01/20 02:32:42;;;;;;;2.20;2.03;;;5.30;99.90;;;;;;5035186;28;20489;-66
2022/01/20 02:35:12;;;;;;;4.40;1.33;;;5.20;99.90;;;;;;5034399;28;21041;-66
2022/01/20 02:37:39;;;;;;;5.00;1.73;;;5.20;99.90;;;;;;5029974;28;21000;-67
2022/01/20 02:40:32;;;;;;;1.50;1.40;;;5.30;99.90;;;;;;5035869;28;20458;-66
2022/01/20 02:45:43;;;;;;;3.27;1.50;;;5.20;99.90;;;;;;5032712;28;20442;-66
2022/01/20 02:48:10;;;;;;;5.10;2.50;;;5.20;99.90;;;;;;5034210;28;20552;-65
2022/01/20 02:50:39;;;;;;;3.07;2.03;;;5.10;99.90;;;;;;5035942;28;21155;-69
2022/01/20 02:53:06;;;;;;;4.50;1.73;;;5.20;99.90;;;;;;5034615;28;20474;-68
2022/01/20 02:55:33;;;;;;;1.80;1.47;;;5.20;99.90;;;;;;5036086;28;20575;-68
2022/01/20 02:58:00;;;;;;;1.00;0.90;;;5.20;99.90;;;;;;5036633;28;20568;-68
2022/01/20 03:00:28;;;;;;;1.57;1.47;;;5.20;99.90;;;;;;5032302;28;20602;-68
2022/01/20 03:02:55;;;;;;;16.37;1.90;;;5.20;99.90;;;;;;5035471;28;20462;-66
2022/01/20 03:05:23;;;;;;;3.33;1.13;;;5.20;99.90;;;;;;5035017;28;20491;-66
2022/01/20 03:07:51;;;;;;;5.50;2.07;;;5.30;99.90;;;;;;5034065;28;20435;-66
2022/01/20 03:10:18;;;;;;;1.67;1.57;;;5.30;99.90;;;;;;5039119;28;20505;-66
2022/01/20 03:12:45;;;;;;;8.43;2.50;;;5.20;99.90;;;;;;5038451;28;20548;-66
2022/01/20 03:15:12;;;;;;;4.23;1.20;;;5.30;99.90;;;;;;5032035;28;20538;-66
2022/01/20 03:17:39;;;;;;;1.00;0.73;;;5.30;99.90;;;;;;5035722;28;20548;-66
2022/01/20 03:20:07;;;;;;;16.97;2.57;;;5.30;99.90;;;;;;5037274;28;20491;-66
2022/01/20 03:22:34;;;;;;;4.60;1.53;;;5.20;99.90;;;;;;5028858;28;20568;-67
2022/01/20 03:25:03;;;;;;;1.63;1.13;;;5.10;99.90;;;;;;5030749;28;20534;-67
2022/01/20 03:27:30;;;;;;;4.10;1.13;;;5.20;99.90;;;;;;5032482;28;21225;-67
2022/01/20 03:29:57;;;;;;;2.60;1.80;;;5.10;99.90;;;;;;5028934;28;20513;-69
2022/01/20 03:32:24;;;;;;;3.83;1.50;;;5.10;99.90;;;;;;5031859;28;20586;-69
2022/01/20 03:34:51;;;;;;;2.73;1.30;;;5.00;99.90;;;;;;5016819;28;20620;-67
2022/01/20 03:37:18;;;;;;;2.90;1.03;;;5.00;99.90;;;;;;5029349;28;20463;-67
2022/01/20 03:39:45;;;;;;;8.00;1.83;;;5.10;99.90;;;;;;5033926;28;20454;-67
2022/01/20 03:42:13;;;;;;;1.17;1.00;;;5.10;99.90;;;;;;5025915;28;20488;-67
2022/01/20 03:44:40;;;;;;;3.50;1.63;;;5.10;99.90;;;;;;5033336;28;20549;-66
2022/01/20 03:47:08;;;;;;;4.20;1.20;;;5.20;99.90;;;;;;5046376;28;20507;-67
2022/01/20 03:49:39;;;;;;;0.90;0.70;;;5.30;99.90;;;;;;5040728;28;20438;-67
2022/01/20 03:52:07;;;;;;;4.37;1.63;;;5.20;99.90;;;;;;5036822;28;20789;-67
2022/01/20 03:54:35;;;;;;;4.30;1.40;;;5.10;99.90;;;;;;5025832;28;21038;-67
2022/01/20 03:57:02;;;;;;;2.40;1.33;;;5.00;99.90;;;;;;5032915;28;20988;-66
2022/01/20 03:59:30;;;;;;;2.33;1.77;;;5.00;99.90;;;;;;5035234;28;20510;-66
2022/01/20 04:01:59;;;;;;;2.67;1.47;;;4.90;99.90;;;;;;4998346;28;20956;-66
2022/01/20 04:04:26;;;;;;;1.40;1.30;;;4.80;99.90;;;;;;5010033;28;20514;-66
2022/01/20 04:06:54;;;;;;;1.97;1.13;;;4.90;99.90;;;;;;5020006;28;20434;-66
2022/01/20 04:09:21;;;;;;;2.80;1.30;;;5.00;99.90;;;;;;5027865;28;20962;-68
2022/01/20 04:11:49;;;;;;;4.00;1.30;;;5.00;99.90;;;;;;5029664;28;20463;-66
2022/01/20 04:14:16;;;;;;;2.60;1.60;;;5.10;99.90;;;;;;5020683;28;20914;-67
2022/01/20 04:17:01;;;;;;;1.10;0.97;;;5.00;99.90;;;;;;5022442;28;20457;-67
2022/01/20 04:19:30;;;;;;;5.60;1.30;;;5.10;99.90;;;;;;5023386;28;20506;-67
2022/01/20 04:21:58;;;;;;;7.83;1.60;;;5.00;99.90;;;;;;5028698;28;20955;-67
2022/01/20 04:24:25;;;;;;;1.17;1.00;;;4.90;99.90;;;;;;5036244;28;20442;-67
2022/01/20 04:26:52;;;;;;;1.20;0.80;;;4.80;99.90;;;;;;5034563;28;20587;-67
2022/01/20 04:29:19;;;;;;;4.30;1.27;;;4.80;99.90;;;;;;5039220;28;20523;-67
2022/01/20 04:31:48;;;;;;;2.67;1.90;;;4.80;99.90;;;;;;5035278;28;20470;-67
2022/01/20 04:34:15;;;;;;;2.27;0.90;;;4.80;99.90;;;;;;5032822;28;20454;-67
2022/01/20 04:36:45;;;;;;;5.93;1.63;;;4.90;99.90;;;;;;5029581;28;20438;-66
2022/01/20 04:39:17;;;;;;;0.93;0.70;;;4.90;99.90;;;;;;5018723;28;20588;-66
2022/01/20 04:41:44;;;;;;;1.40;1.03;;;4.80;99.90;;;;;;5033751;28;20832;-66
2022/01/20 04:44:17;;;;;;;3.83;1.30;;;4.80;99.90;;;;;;5024502;28;20453;-67
2022/01/20 04:46:50;;;;;;;10.67;2.10;;;4.80;99.90;;;;;;5028479;28;20479;-67
2022/01/20 04:57:29;;;;;;;3.20;2.40;;;5.00;99.90;;;;;;5023692;28;20443;-66
2022/01/20 04:59:56;;;;;;;1.30;1.20;;;4.90;99.90;;;;;;5028223;28;20642;-67
2022/01/20 05:02:26;;;;;;;3.47;1.00;;;4.80;99.90;;;;;;5030471;28;20541;-66
2022/01/20 05:04:56;;;;;;;1.83;1.60;;;4.80;99.90;;;;;;5025017;28;20478;-66
2022/01/20 05:07:26;;;;;;;1.60;1.50;;;4.80;99.90;;;;;;5036607;28;20547;-66
2022/01/20 05:09:55;;;;;;;1.90;1.80;;;4.80;99.90;;;;;;5025710;28;20510;-67
2022/01/20 05:12:27;;;;;;;3.27;1.27;;;4.80;99.90;;;;;;5006665;28;20426;-66
2022/01/20 05:14:55;;;;;;;5.00;1.97;;;4.80;99.90;;;;;;5019880;28;20551;-67
2022/01/20 05:17:22;;;;;;;1.47;1.10;;;4.70;99.90;;;;;;5026989;28;20491;-67
2022/01/20 05:19:49;;;;;;;1.87;0.90;;;4.70;99.90;;;;;;5024959;28;20533;-67
2022/01/20 05:22:17;;;;;;;21.27;1.80;;;4.60;99.90;;;;;;5027269;28;20533;-67
2022/01/20 05:24:45;;;;;;;3.03;2.13;;;4.70;99.90;;;;;;5027262;28;20553;-67
2022/01/20 05:27:12;;;;;;;2.23;1.10;;;4.60;99.90;;;;;;5014543;28;20467;-66
2022/01/20 05:29:39;;;;;;;2.33;1.03;;;4.60;99.90;;;;;;5016459;28;21321;-66
2022/01/20 05:32:06;;;;;;;3.80;1.70;;;4.50;99.90;;;;;;5021389;28;20524;-67
2022/01/20 05:34:33;;;;;;;1.30;0.83;;;4.50;99.90;;;;;;5007289;28;20456;-67
2022/01/20 05:37:01;;;;;;;1.50;1.20;;;4.50;99.90;;;;;;5026670;28;21443;-67
2022/01/20 05:39:30;;;;;;;5.03;3.83;;;4.50;99.90;;;;;;5033525;28;20561;-67
2022/01/20 05:41:57;;;;;;;1.20;1.00;;;4.50;99.90;;;;;;5032752;28;20930;-67
2022/01/20 05:44:24;;;;;;;2.63;1.67;;;4.50;99.90;;;;;;5038372;28;21039;-67
2022/01/20 05:46:52;;;;;;;4.10;1.73;;;4.40;99.90;;;;;;5035474;28;20533;-67
2022/01/20 05:49:21;;;;;;;4.93;1.40;;;4.30;99.90;;;;;;5034474;28;21608;-67
2022/01/20 05:51:49;;;;;;;1.00;0.90;;;4.30;99.90;;;;;;5040524;28;20456;-67
2022/01/20 05:54:17;;;;;;;3.70;1.47;;;4.20;99.90;;;;;;5033063;28;20483;-67
2022/01/20 05:56:45;;;;;;;1.37;0.80;;;4.20;99.90;;;;;;5035869;28;20506;-67
2022/01/20 05:59:13;;;;;;;2.70;0.93;;;4.30;99.90;;;;;;5038261;28;20462;-67
2022/01/20 06:01:40;;;;;;;5.50;2.23;;;4.40;99.90;;;;;;5033289;28;20490;-67
2022/01/20 06:04:09;;;;;;;1.70;1.60;;;4.30;99.90;;;;;;5033271;28;20887;-67
2022/01/20 06:06:37;;;;;;;5.63;3.17;;;4.40;99.90;;;;;;5035923;28;20948;-67
2022/01/20 06:09:05;;;;;;;1.10;1.00;;;4.30;99.90;;;;;;5033894;28;20460;-67
2022/01/20 06:11:32;;;;;;;7.50;1.93;;;4.20;99.90;;;;;;5034382;28;20451;-67
2022/01/20 06:14:00;;;;;;;2.60;2.00;;;4.20;99.90;;;;;;5034596;28;20483;-67
2022/01/20 06:16:27;;;;;;;1.90;1.30;;;4.20;99.90;;;;;;5036463;28;20612;-67
2022/01/20 06:18:55;;;;;;;2.53;1.53;;;4.20;99.90;;;;;;5035538;28;20464;-67
2022/01/20 06:21:22;;;;;;;4.10;1.37;;;4.30;99.90;;;;;;5037153;28;20471;-67
2022/01/20 06:23:49;;;;;;;3.03;0.97;;;4.30;99.90;;;;;;5031639;28;20579;-67
2022/01/20 06:26:16;;;;;;;2.80;1.97;;;4.40;99.90;;;;;;5024994;28;21043;-67
2022/01/20 06:28:43;;;;;;;2.90;1.83;;;4.30;99.90;;;;;;5030260;28;20459;-67
2022/01/20 06:31:12;;;;;;;4.80;3.03;;;4.20;99.90;;;;;;5031889;28;20456;-67
2022/01/20 06:33:39;;;;;;;2.60;1.07;;;4.20;99.90;;;;;;5031129;28;22133;-67
2022/01/20 06:36:07;;;;;;;4.27;1.77;;;4.20;99.90;;;;;;5029349;28;20488;-67
2022/01/20 06:38:34;;;;;;;4.27;2.33;;;4.30;99.90;;;;;;5031966;28;20762;-67
2022/01/20 06:41:01;;;;;;;11.63;1.27;;;4.30;99.90;;;;;;5041736;28;20461;-67
2022/01/20 06:43:28;;;;;;;1.67;1.40;;;4.30;99.90;;;;;;5027745;28;21025;-67
2022/01/20 06:45:55;;;;;;;2.43;2.33;;;4.20;99.90;;;;;;5032545;28;20459;-68
2022/01/20 06:48:23;;;;;;;3.13;1.57;;;4.10;99.90;;;;;;5037770;28;20433;-68
2022/01/20 06:50:50;;;;;;;1.87;1.10;;;4.10;99.90;;;;;;5040437;28;20439;-68
2022/01/20 06:53:17;;;;;;;12.50;2.60;;;4.10;99.90;;;;;;5034728;28;20470;-67
2022/01/20 06:55:45;;;;;;;1.00;0.90;;;4.10;99.90;;;;;;5029381;28;20472;-68
2022/01/20 06:58:11;;;;;;;1.00;0.90;;;4.10;99.90;;;;;;5036469;28;20454;-68
2022/01/20 07:00:39;;;;;;;1.50;1.30;;;4.10;99.90;;;;;;5030180;28;20781;-68
2022/01/20 07:03:06;;;;;;;6.20;1.77;;;4.20;99.90;;;;;;5037137;28;20435;-68
2022/01/20 07:05:34;;;;;;;1.57;1.00;;;4.20;99.90;;;;;;5039238;28;20557;-68
2022/01/20 07:08:01;;;;;;;6.10;1.10;;;4.20;99.90;;;;;;5021295;28;20558;-68
2022/01/20 07:10:28;;;;;;;1.57;1.47;;;4.30;99.90;;;;;;5032898;28;20534;-67
2022/01/20 07:12:55;;;;;;;1.33;0.90;;;4.30;99.90;;;;;;5037492;28;20495;-68
2022/01/20 07:15:22;;;;;;;3.97;1.90;;;4.30;99.90;;;;;;5038120;28;20499;-68
2022/01/20 07:17:49;;;;;;;3.93;1.97;;;4.20;99.90;;;;;;5035838;28;20877;-67
2022/01/20 07:20:16;;;;;;;2.50;1.53;;;4.20;99.90;;;;;;5043292;28;20483;-68
2022/01/20 07:22:45;;;;;;;14.63;3.20;;;4.20;99.90;;;;;;5039041;28;20474;-68
2022/01/20 07:25:12;;;;;;;3.90;2.80;;;4.10;99.90;;;;;;5035803;28;20936;-67
2022/01/20 07:27:39;;;;;;;16.90;3.20;;;4.10;99.90;;;;;;5031792;28;20449;-68
2022/01/20 07:30:07;;;;;;;3.47;1.37;;;4.50;99.90;;;;;;5039717;28;20517;-68
2022/01/20 07:32:35;;;;;;;8.70;2.70;;;4.80;99.90;;;;;;5032815;28;20535;-68
2022/01/20 07:35:02;;;;;;;4.07;3.20;;;4.90;99.90;;;;;;5029053;28;21246;-67
2022/01/20 07:37:29;;;;;;;4.37;2.70;;;5.10;99.90;;;;;;5025694;28;20468;-67
2022/01/20 07:39:57;;;;;;;1.57;1.20;;;5.10;99.90;;;;;;5038390;28;20442;-68
2022/01/20 07:42:24;;;;;;;9.40;2.17;;;4.90;99.90;;;;;;5036568;28;20493;-67
2022/01/20 07:44:51;;;;;;;3.13;1.07;;;4.80;99.90;;;;;;5034540;28;20537;-66
2022/01/20 07:47:18;;;;;;;6.83;1.73;;;4.60;99.90;;;;;;5032797;28;20472;-66
2022/01/20 07:49:45;;;;;;;0.90;0.67;;;4.60;99.90;;;;;;5035028;28;20442;-66
2022/01/20 07:52:14;;;;;;;2.00;1.90;;;4.50;99.90;;;;;;5034769;28;20422;-67
2022/01/20 07:54:41;;;;;;;2.77;1.67;;;4.40;99.90;;;;;;5035207;28;20519;-67
2022/01/20 07:57:10;;;;;;;21.90;3.27;;;4.20;99.90;;;;;;5040800;28;20486;-67
2022/01/20 07:59:37;;;;;;;5.47;1.27;;;4.00;99.90;;;;;;5037249;28;20522;-66
2022/01/20 08:02:04;;;;;;;4.23;2.10;;;3.90;99.90;;;;;;5023352;28;20521;-67
2022/01/20 08:04:31;;;;;;;7.13;2.50;;;3.80;99.90;;;;;;5024440;28;20481;-66
2022/01/20 08:06:58;;;;;;;10.33;1.17;;;3.80;99.90;;;;;;5027519;28;21018;-66
2022/01/20 08:09:25;;;;;;;2.80;1.60;;;3.80;99.90;;;;;;5027582;28;20431;-66
2022/01/20 08:11:52;;;;;;;5.60;1.53;;;3.70;99.90;;;;;;5035331;28;20510;-67
2022/01/20 08:14:21;;;;;;;4.70;1.40;;;3.80;99.90;;;;;;5038434;28;20475;-67
2022/01/20 08:16:48;;;;;;;1.97;1.53;;;3.80;99.90;;;;;;5036893;28;20438;-67
2022/01/20 08:19:15;;;;;;;4.47;2.23;;;4.00;99.90;;;;;;5036672;28;20546;-66
2022/01/20 08:21:42;;;;;;;4.20;1.63;;;4.10;99.90;;;;;;5036853;28;20462;-67
2022/01/20 08:24:09;;;;;;;9.40;1.60;;;4.20;99.90;;;;;;5033098;28;21160;-66
2022/01/20 08:26:36;;;;;;;3.30;1.97;;;4.40;99.90;;;;;;5037606;28;20480;-67
2022/01/20 08:29:03;;;;;;;1.10;1.00;;;4.60;99.90;;;;;;5034309;28;20466;-67
2022/01/20 08:31:32;;;;;;;5.63;1.30;;;4.60;99.90;;;;;;5037141;28;20432;-66
2022/01/20 08:33:59;;;;;;;1.20;0.90;;;4.70;99.90;;;;;;5032205;28;20544;-67
2022/01/20 08:36:26;;;;;;;4.03;1.73;;;4.80;99.90;;;;;;5034815;28;20558;-68
2022/01/20 08:38:53;;;;;;;8.23;1.93;;;4.90;99.90;;;;;;5034319;28;20872;-67
2022/01/20 08:41:20;;;;;;;3.70;1.53;;;4.90;99.90;;;;;;5024577;28;20488;-66
2022/01/20 08:43:47;;;;;;;2.90;2.67;;;4.70;99.90;;;;;;5030581;28;20974;-66
2022/01/20 08:46:16;;;;;;;1.40;1.00;;;4.70;99.90;;;;;;5031711;28;20614;-67
2022/01/20 08:48:45;;;;;;;1.40;0.90;;;4.60;99.90;;;;;;5027205;28;20868;-67
2022/01/20 08:51:12;;;;;;;4.07;0.97;;;4.40;99.90;;;;;;5029293;28;20959;-67
2022/01/20 08:53:39;;;;;;;1.63;1.43;;;4.40;99.90;;;;;;5029272;28;20813;-67
2022/01/20 08:56:07;;;;;;;1.33;1.17;;;4.40;99.90;;;;;;5018957;28;20430;-66
2022/01/20 08:58:34;;;;;;;2.20;1.30;;;4.20;99.90;;;;;;5019381;28;20461;-66
2022/01/20 09:01:02;;;;;;;1.73;0.93;;;4.40;99.90;;;;;;5033185;28;20549;-67
2022/01/20 09:03:31;;;;;;;3.00;1.03;;;4.40;99.90;;;;;;5028786;28;20467;-66
2022/01/20 09:05:59;;;;;;;1.87;1.57;;;4.30;99.90;;;;;;5034095;28;20461;-67
2022/01/20 09:08:26;;;;;;;5.13;1.63;;;4.20;99.90;;;;;;5034371;28;20517;-67
2022/01/20 09:10:55;;;;;;;1.93;1.67;;;4.10;99.90;;;;;;5033590;28;20464;-67
2022/01/20 09:16:06;;;;;;;0.90;0.70;;;4.10;99.90;;;;;;5028016;28;20475;-66
2022/01/20 09:18:34;;;;;;;5.20;2.70;;;4.00;99.90;;;;;;5034210;28;20539;-66
2022/01/20 09:21:02;;;;;;;2.20;2.10;;;4.00;99.90;;;;;;5023812;28;20505;-66
2022/01/20 09:23:29;;;;;;;1.47;1.37;;;3.90;99.90;;;;;;5021316;28;20894;-67
2022/01/20 09:25:56;;;;;;;1.90;1.73;;;4.10;99.90;;;;;;5027996;28;20589;-67
2022/01/20 09:28:23;;;;;;;6.40;1.80;;;4.80;99.90;;;;;;5023907;28;20464;-67
2022/01/20 09:30:56;;;;;;;11.60;1.70;;;5.50;99.90;;;;;;5034668;28;20548;-67
2022/01/20 09:33:27;;;;;;;6.93;1.33;;;6.00;99.90;;;;;;5015761;28;21159;-66
2022/01/20 09:35:55;;;;;;;2.10;1.30;;;6.00;99.90;;;;;;5029236;28;21009;-67
2022/01/20 09:38:23;;;;;;;4.20;1.67;;;5.90;99.90;;;;;;5027341;28;20530;-67
2022/01/20 09:40:50;;;;;;;6.20;2.33;;;5.40;99.90;;;;;;5037609;28;20455;-67
2022/01/20 09:43:18;;;;;;;3.00;1.57;;;5.10;99.90;;;;;;5027920;28;21023;-67
2022/01/20 09:45:49;;;;;;;2.17;1.10;;;4.90;99.90;;;;;;5032382;28;20467;-66
2022/01/20 09:48:19;;;;;;;2.03;1.00;;;4.90;99.90;;;;;;5032548;28;20463;-68
2022/01/20 09:50:47;;;;;;;2.10;1.27;;;4.90;99.90;;;;;;5034068;28;20946;-68
2022/01/20 09:53:15;;;;;;;2.40;0.70;;;5.10;99.90;;;;;;5034107;28;20444;-68
2022/01/20 09:55:44;;;;;;;12.03;1.97;;;5.10;99.90;;;;;;5034108;28;20524;-68
2022/01/20 09:58:12;;;;;;;1.57;1.27;;;5.10;99.90;;;;;;5034060;28;20461;-68
2022/01/20 10:00:40;;;;;;;3.63;1.30;;;4.90;99.90;;;;;;5040315;28;20558;-68
2022/01/20 10:03:10;;;;;;;1.67;1.33;;;4.90;99.90;;;;;;5032266;28;20591;-68
2022/01/20 10:05:39;;;;;;;10.33;1.37;;;4.90;99.90;;;;;;5038473;28;21738;-68
2022/01/20 10:08:10;;;;;;;4.97;1.17;;;4.80;99.90;;;;;;5032271;28;20438;-68
2022/01/20 10:10:47;;;;;;;0.90;0.70;;;4.80;99.90;;;;;;5038756;28;20464;-68
2022/01/20 10:13:16;;;;;;;2.90;1.27;;;4.90;99.90;;;;;;5033964;28;20694;-68
2022/01/20 10:15:54;;;;;;;3.03;1.70;;;5.00;99.90;;;;;;5033323;28;20938;-68
2022/01/20 10:18:21;;;;;;;1.10;0.90;;;5.10;99.90;;;;;;5034056;28;20466;-67
2022/01/20 10:20:54;;;;;;;3.67;0.97;;;5.20;99.90;;;;;;5035746;28;20517;-67
2022/01/20 10:23:39;;;;;;;3.27;0.90;;;5.30;99.90;;;;;;5031637;28;20467;-68
2022/01/20 10:26:15;;;;;;;1.90;1.07;;;5.40;99.90;;;;;;5030263;28;20434;-67
2022/01/20 10:28:51;;;;;;;2.80;1.00;;;5.40;99.90;;;;;;5031274;28;20495;-66
2022/01/20 10:31:30;;;;;;;3.20;0.70;;;5.40;99.90;;;;;;5034868;28;21865;-66
2022/01/20 10:33:57;;;;;;;4.30;1.50;;;5.40;99.90;;;;;;5036256;28;20486;-67
2022/01/20 10:36:24;;;;;;;3.83;1.47;;;5.20;99.90;;;;;;5036118;28;20519;-66
2022/01/20 10:38:53;;;;;;;1.93;1.47;;;5.20;99.90;;;;;;5030917;28;21174;-68
2022/01/20 10:41:29;;;;;;;5.10;1.60;;;5.10;99.90;;;;;;5043759;28;20487;-66
2022/01/20 10:44:09;;;;;;;2.60;1.20;;;5.20;99.90;;;;;;5014798;28;20466;-66
2022/01/20 10:46:44;;;;;;;1.57;0.97;;;5.50;99.90;;;;;;5018224;28;20524;-67
2022/01/20 10:49:11;;;;;;;3.50;1.43;;;5.60;99.90;;;;;;5033462;28;20861;-66
2022/01/20 10:51:39;;;;;;;3.57;1.67;;;5.60;99.90;;;;;;5040708;28;21781;-66
2022/01/20 10:54:10;;;;;;;2.83;1.77;;;5.60;99.90;;;;;;5036619;28;20559;-67
2022/01/20 10:56:54;;;;;;;2.47;1.30;;;5.60;99.90;;;;;;5037653;28;20530;-67
2022/01/20 10:59:22;;;;;;;1.37;1.27;;;5.60;99.90;;;;;;5033582;28;20535;-67
2022/01/20 11:02:04;;;;;;;9.63;1.83;;;5.50;99.90;;;;;;5034225;28;20511;-67
2022/01/20 11:04:32;;;;;;;1.40;1.00;;;5.20;99.90;;;;;;5024263;28;21012;-67
2022/01/20 11:07:04;;;;;;;2.30;1.50;;;5.40;99.90;;;;;;5028173;28;20642;-67
2022/01/20 11:09:33;;;;;;;1.70;1.40;;;5.30;99.90;;;;;;5025928;28;20472;-67
2022/01/20 11:12:03;;;;;;;3.87;1.70;;;5.30;99.90;;;;;;5004796;28;20986;-68
2022/01/20 11:14:32;;;;;;;2.20;1.73;;;5.30;99.90;;;;;;5025086;28;20465;-67
2022/01/20 11:17:00;;;;;;;12.80;1.77;;;6.00;99.90;;;;;;5027820;28;20446;-67
2022/01/20 11:19:31;;;;;;;1.40;1.03;;;6.40;99.90;;;;;;5027596;28;20535;-67
2022/01/20 11:22:07;;;;;;;1.20;1.10;;;6.20;99.90;;;;;;5028718;28;20497;-67
2022/01/20 11:24:34;;;;;;;1.27;0.90;;;5.90;99.90;;;;;;5030126;28;20529;-67
2022/01/20 11:27:06;;;;;;;2.03;1.17;;;6.00;99.90;;;;;;5038618;28;20952;-67
2022/01/20 11:29:42;;;;;;;4.23;1.93;;;6.00;99.90;;;;;;5023876;28;20566;-67
2022/01/20 11:32:20;;;;;;;1.57;1.47;;;6.20;99.90;;;;;;5025183;28;20544;-67
2022/01/20 11:35:06;;;;;;;4.13;1.17;;;6.00;99.90;;;;;;5018246;28;20593;-67
2022/01/20 11:37:35;;;;;;;2.03;1.40;;;6.10;99.90;;;;;;5024287;28;20478;-67
2022/01/20 11:40:16;;;;;;;7.30;1.90;;;6.10;99.90;;;;;;5028888;28;21065;-67
2022/01/20 11:42:57;;;;;;;7.63;1.23;;;6.10;99.90;;;;;;5023085;28;20464;-67
2022/01/20 11:45:31;;;;;;;1.17;1.00;;;5.80;99.90;;;;;;5023387;28;20466;-68
2022/01/20 11:47:59;;;;;;;0.90;0.80;;;5.50;99.90;;;;;;5032731;28;20457;-68
2022/01/20 11:50:26;;;;;;;1.40;0.97;;;5.50;99.90;;;;;;5031007;28;20519;-68
2022/01/20 11:52:53;;;;;;;2.80;2.03;;;5.40;99.90;;;;;;5012283;28;20434;-67
2022/01/20 11:55:21;;;;;;;2.40;1.77;;;5.40;99.90;;;;;;5033647;28;20555;-68
2022/01/20 11:57:50;;;;;;;10.30;1.20;;;5.50;99.90;;;;;;5032617;28;20542;-68
2022/01/20 12:00:22;;;;;;;0.93;0.73;;;5.40;99.90;;;;;;5026438;28;20555;-68
2022/01/20 12:02:49;;;;;;;7.73;2.27;;;5.40;99.90;;;;;;5026946;28;20458;-66
2022/01/20 12:05:25;;;;;;;2.80;1.57;;;5.40;99.90;;;;;;5019249;28;20604;-66
2022/01/20 12:07:53;;;;;;;0.90;0.60;;;5.30;99.90;;;;;;5025730;28;20434;-67
2022/01/20 12:10:26;;;;;;;1.07;0.97;;;5.20;99.90;;;;;;5026542;28;20859;-67
2022/01/20 12:13:05;;;;;;;3.13;1.90;;;5.20;99.90;;;;;;5027760;28;20458;-68
2022/01/20 12:15:33;;;;;;;3.50;1.00;;;5.20;99.90;;;;;;5021002;28;20462;-68
2022/01/20 12:18:00;;;;;;;2.13;1.70;;;5.30;99.90;;;;;;5016951;28;20430;-68
2022/01/20 12:20:27;;;;;;;2.03;1.87;;;5.40;99.90;;;;;;5018264;28;21430;-68
2022/01/20 12:22:55;;;;;;;4.63;2.10;;;5.70;99.90;;;;;;5024773;28;20546;-68
2022/01/20 12:25:24;;;;;;;1.70;1.50;;;6.50;99.90;;;;;;5026895;28;20454;-68
2022/01/20 12:27:51;;;;;;;3.07;1.83;;;6.40;99.90;;;;;;5029314;28;20535;-68
2022/01/20 12:30:25;;;;;;;2.13;0.90;;;6.20;99.90;;;;;;5020306;28;20471;-66
2022/01/20 12:33:06;;;;;;;1.93;1.00;;;6.30;99.90;;;;;;5016840;28;20454;-66
2022/01/20 12:35:38;;;;;;;1.00;0.80;;;6.20;99.90;;;;;;5030905;28;20461;-66
2022/01/20 12:38:20;;;;;;;1.07;0.83;;;6.10;99.90;;;;;;5019313;28;20434;-66
2022/01/20 12:40:50;;;;;;;1.00;0.80;;;6.20;99.90;;;;;;5020677;28;20461;-66
2022/01/20 12:43:19;;;;;;;10.80;2.50;;;6.10;99.90;;;;;;5018533;28;20514;-66
2022/01/20 12:45:58;;;;;;;4.60;1.33;;;6.10;99.90;;;;;;5034988;28;20529;-67
2022/01/20 12:48:25;;;;;;;1.23;1.13;;;6.00;99.90;;;;;;5024192;28;20951;-67
2022/01/20 12:50:54;;;;;;;2.33;1.47;;;6.00;99.90;;;;;;5030011;28;20434;-67
2022/01/20 12:53:38;;;;;;;1.63;1.43;;;6.00;99.90;;;;;;5034105;28;20429;-66
2022/01/20 12:56:09;;;;;;;20.17;2.20;;;5.90;99.90;;;;;;5024688;28;20430;-67
2022/01/20 12:58:50;;;;;;;2.77;1.60;;;6.00;99.90;;;;;;5024289;28;20958;-67
2022/01/20 13:01:19;;;;;;;4.27;1.83;;;6.00;99.90;;;;;;5021777;28;21124;-66
2022/01/20 13:03:46;;;;;;;1.33;1.20;;;5.90;99.90;;;;;;5031680;28;20563;-67
2022/01/20 13:06:22;;;;;;;4.23;1.90;;;6.00;99.90;;;;;;5038705;28;20514;-67
2022/01/20 13:09:01;;;;;;;1.23;1.10;;;6.00;99.90;;;;;;5033871;28;20459;-67
2022/01/20 13:11:35;;;;;;;4.80;1.50;;;6.30;99.90;;;;;;5029554;28;21001;-67
2022/01/20 13:14:02;;;;;;;4.97;1.00;;;6.20;99.90;;;;;;5030483;28;20453;-67
2022/01/20 13:16:32;;;;;;;5.10;2.27;;;6.10;99.90;;;;;;5020716;28;21010;-67
2022/01/20 13:19:01;;;;;;;5.50;1.53;;;6.30;99.90;;;;;;5021155;28;20459;-68
2022/01/20 13:21:36;;;;;;;6.63;1.33;;;6.30;99.90;;;;;;5036711;28;20981;-67
2022/01/20 13:24:03;;;;;;;17.27;2.50;;;6.20;99.90;;;;;;5025635;28;20505;-68
2022/01/20 13:26:30;;;;;;;3.30;3.10;;;6.30;99.90;;;;;;5031568;28;20552;-67
2022/01/20 13:28:59;;;;;;;1.00;0.80;;;6.20;99.90;;;;;;5034932;28;20596;-67
2022/01/20 13:31:26;;;;;;;1.50;1.00;;;5.80;99.90;;;;;;5029548;28;20552;-67
2022/01/20 13:33:55;;;;;;;3.73;1.53;;;5.30;99.90;;;;;;5024689;28;20479;-67
2022/01/20 13:36:22;;;;;;;1.93;1.50;;;4.90;99.90;;;;;;5032772;28;21457;-66
2022/01/20 13:38:59;;;;;;;3.03;1.43;;;4.90;99.90;;;;;;5031884;28;20552;-66
2022/01/20 13:41:29;;;;;;;1.43;0.97;;;5.00;99.90;;;;;;5029850;28;20943;-67
2022/01/20 13:46:45;;;;;;;4.10;1.47;;;5.30;99.90;;;;;;5024918;28;20456;-67
2022/01/20 13:49:17;;;;;;;1.67;1.43;;;5.20;99.90;;;;;;5036114;28;20542;-67
2022/01/20 13:51:44;;;;;;;10.43;2.60;;;5.20;99.90;;;;;;5034067;28;20448;-67
2022/01/20 13:54:11;;;;;;;4.10;3.50;;;5.10;99.90;;;;;;5030400;28;20508;-67
2022/01/20 13:56:39;;;;;;;11.13;2.30;;;4.80;99.90;;;;;;5040067;28;20531;-67
2022/01/20 13:59:08;;;;;;;3.33;1.10;;;4.70;99.90;;;;;;5036414;28;20548;-66